createdAt,value
2018-01-31T01:52:50.596Z,858.18
2018-01-31T01:53:50.466Z,858.19
2018-01-31T01:54:50.331Z,858.19
2018-01-31T01:55:50.199Z,858.14
2018-01-31T01:56:50.065Z,858.15
2018-01-31T01:57:49.931Z,858.12
2018-01-31T01:58:49.800Z,858.11
2018-01-31T01:59:49.669Z,858.07
2018-01-31T02:00:49.533Z,858.07
2018-01-31T02:01:49.404Z,858.06
2018-01-31T02:02:49.272Z,857.99
2018-01-31T02:03:49.135Z,857.98
2018-01-31T02:04:49.002Z,857.99
2018-01-31T02:05:48.870Z,858.00
2018-01-31T02:06:48.740Z,857.97
2018-01-31T02:07:48.603Z,857.87
2018-01-31T02:08:48.470Z,857.84
2018-01-31T02:09:48.338Z,857.82
2018-01-31T02:10:48.206Z,857.84
2018-01-31T02:11:48.072Z,857.86
2018-01-31T02:12:47.940Z,857.85
2018-01-31T02:13:47.806Z,857.84
2018-01-31T02:14:47.670Z,857.82
2018-01-31T02:15:47.539Z,857.85
2018-01-31T02:16:47.406Z,857.80
2018-01-31T02:17:47.272Z,857.80
2018-01-31T02:18:47.141Z,857.81
2018-01-31T02:19:47.008Z,857.82
2018-01-31T02:20:46.875Z,857.80
2018-01-31T02:21:46.742Z,857.74
2018-01-31T02:22:46.608Z,857.72
2018-01-31T02:23:46.475Z,857.72
2018-01-31T02:24:46.342Z,857.68
2018-01-31T02:25:46.209Z,857.73
2018-01-31T02:26:46.076Z,857.72
2018-01-31T02:27:45.944Z,857.71
2018-01-31T02:28:45.810Z,857.70
2018-01-31T02:29:45.679Z,857.69
2018-01-31T02:30:45.544Z,857.67
2018-01-31T02:31:45.413Z,857.63
2018-01-31T02:32:45.277Z,857.62
2018-01-31T02:33:45.145Z,857.64
2018-01-31T02:34:45.016Z,857.59
2018-01-31T02:35:44.881Z,857.68
2018-01-31T02:36:44.746Z,857.65
2018-01-31T02:37:44.615Z,857.62
2018-01-31T02:38:44.483Z,857.70
2018-01-31T02:39:44.350Z,857.63
2018-01-31T02:40:44.216Z,857.63
2018-01-31T02:41:44.083Z,857.62
2018-01-31T02:42:43.951Z,857.63
2018-01-31T02:43:43.817Z,857.64
2018-01-31T02:44:43.685Z,857.60
2018-01-31T02:45:43.561Z,857.60
2018-01-31T02:46:43.421Z,857.58
2018-01-31T02:47:43.288Z,857.60
2018-01-31T02:48:43.155Z,857.58
2018-01-31T02:49:43.022Z,857.59
2018-01-31T02:50:42.888Z,857.61
2018-01-31T02:51:42.756Z,857.56
2018-01-31T02:52:42.623Z,857.56
2018-01-31T02:53:42.492Z,857.56
2018-01-31T02:54:42.355Z,857.51
2018-01-31T02:55:42.226Z,857.54
2018-01-31T02:56:42.092Z,857.54
2018-01-31T02:57:41.957Z,857.55
2018-01-31T02:58:41.827Z,857.56
2018-01-31T02:59:41.692Z,857.52
2018-01-31T03:00:41.562Z,857.52
2018-01-31T03:01:41.428Z,857.51
2018-01-31T03:02:41.293Z,857.47
2018-01-31T03:03:41.162Z,857.53
2018-01-31T03:04:41.034Z,857.51
2018-01-31T03:05:40.896Z,857.53
2018-01-31T03:06:40.764Z,857.54
2018-01-31T03:07:40.628Z,857.55
2018-01-31T03:08:40.498Z,857.52
2018-01-31T03:09:40.364Z,857.55
2018-01-31T03:10:40.232Z,857.52
2018-01-31T03:11:40.099Z,857.54
2018-01-31T03:12:39.966Z,857.56
2018-01-31T03:13:39.832Z,857.55
2018-01-31T03:14:39.699Z,857.55
2018-01-31T03:15:39.567Z,857.55
2018-01-31T03:16:39.433Z,857.57
2018-01-31T03:17:39.303Z,857.54
2018-01-31T03:18:39.170Z,857.55
2018-01-31T03:19:39.036Z,857.55
2018-01-31T03:20:38.901Z,857.53
2018-01-31T03:21:38.768Z,857.53
2018-01-31T03:22:38.636Z,857.50
2018-01-31T03:23:38.505Z,857.51
2018-01-31T03:24:38.371Z,857.49
2018-01-31T03:25:38.238Z,857.47
2018-01-31T03:26:38.106Z,857.43
2018-01-31T03:27:37.972Z,857.42
2018-01-31T03:28:37.839Z,857.41
2018-01-31T03:29:37.706Z,857.43
2018-01-31T03:30:37.575Z,857.40
2018-01-31T03:31:37.441Z,857.37
2018-01-31T03:32:37.307Z,857.35
2018-01-31T03:33:37.173Z,857.33
2018-01-31T03:34:37.043Z,857.39
2018-01-31T03:35:36.912Z,857.38
2018-01-31T03:36:36.778Z,857.35
2018-01-31T03:37:36.643Z,857.33
2018-01-31T03:38:36.511Z,857.31
2018-01-31T03:39:36.377Z,857.31
2018-01-31T03:40:36.245Z,857.31
2018-01-31T03:41:36.112Z,857.34
2018-01-31T03:42:35.978Z,857.30
2018-01-31T03:43:35.846Z,857.30
2018-01-31T03:44:35.712Z,857.28
2018-01-31T03:45:35.583Z,857.28
2018-01-31T03:46:35.452Z,857.34
2018-01-31T03:47:35.315Z,857.28
2018-01-31T03:48:35.184Z,857.24
2018-01-31T03:49:35.049Z,857.28
2018-01-31T03:50:34.913Z,857.26
2018-01-31T03:51:34.782Z,857.23
2018-01-31T03:52:34.649Z,857.23
2018-01-31T03:53:34.516Z,857.21
2018-01-31T03:54:34.385Z,857.20
2018-01-31T03:55:34.252Z,857.20
2018-01-31T03:56:34.117Z,857.19
2018-01-31T03:57:33.988Z,857.24
2018-01-31T03:58:33.851Z,857.21
2018-01-31T03:59:33.719Z,857.22
2018-01-31T04:00:33.585Z,857.15
2018-01-31T04:01:33.454Z,857.16
2018-01-31T04:02:33.322Z,857.16
2018-01-31T04:03:33.185Z,857.16
2018-01-31T04:04:33.054Z,857.13
2018-01-31T04:05:32.921Z,857.09
2018-01-31T04:06:32.789Z,857.07
2018-01-31T04:07:32.661Z,857.09
2018-01-31T04:08:32.525Z,857.04
2018-01-31T04:09:32.390Z,857.04
2018-01-31T04:10:32.255Z,856.99
2018-01-31T04:11:32.120Z,856.97
2018-01-31T04:12:31.989Z,856.94
2018-01-31T04:13:31.856Z,856.93
2018-01-31T04:14:31.725Z,856.90
2018-01-31T04:15:31.589Z,856.84
2018-01-31T04:16:31.456Z,856.85
2018-01-31T04:17:31.323Z,856.82
2018-01-31T04:18:31.190Z,856.78
2018-01-31T04:19:31.058Z,856.80
2018-01-31T04:20:30.924Z,856.75
2018-01-31T04:21:30.790Z,856.75
2018-01-31T04:22:30.657Z,856.77
2018-01-31T04:23:30.524Z,856.78
2018-01-31T04:24:30.392Z,856.75
2018-01-31T04:25:30.259Z,856.69
2018-01-31T04:26:30.123Z,856.69
2018-01-31T04:27:29.994Z,856.62
2018-01-31T04:28:29.857Z,856.62
2018-01-31T04:29:29.724Z,856.67
2018-01-31T04:30:29.591Z,856.66
2018-01-31T04:31:29.458Z,856.66
2018-01-31T04:32:29.324Z,856.68
2018-01-31T04:33:29.191Z,856.66
2018-01-31T04:34:29.059Z,856.64
2018-01-31T04:35:28.926Z,856.64
2018-01-31T04:36:28.792Z,856.65
2018-01-31T04:37:28.672Z,856.63
2018-01-31T04:38:28.524Z,856.65
2018-01-31T04:39:28.392Z,856.67
2018-01-31T04:40:28.259Z,856.63
2018-01-31T04:41:28.127Z,856.68
2018-01-31T04:42:27.994Z,856.61
2018-01-31T04:43:27.860Z,856.65
2018-01-31T04:44:27.727Z,856.64
2018-01-31T04:45:27.594Z,856.63
2018-01-31T04:46:27.460Z,856.61
2018-01-31T04:47:27.329Z,856.58
2018-01-31T04:48:27.196Z,856.62
2018-01-31T04:49:27.060Z,856.61
2018-01-31T04:50:26.928Z,856.64
2018-01-31T04:51:26.795Z,856.64
2018-01-31T04:52:26.661Z,856.67
2018-01-31T04:53:26.529Z,856.60
2018-01-31T04:54:26.400Z,856.63
2018-01-31T04:55:26.262Z,856.63
2018-01-31T04:56:26.147Z,856.64
2018-01-31T04:57:25.995Z,856.62
2018-01-31T04:58:25.864Z,856.62
2018-01-31T04:59:25.753Z,856.63
2018-01-31T05:00:25.594Z,856.59
2018-01-31T05:01:25.462Z,856.56
2018-01-31T05:02:25.330Z,856.53
2018-01-31T05:03:25.195Z,856.50
2018-01-31T05:04:25.096Z,856.48
2018-01-31T05:05:24.928Z,856.45
2018-01-31T05:06:24.795Z,856.48
2018-01-31T05:07:24.661Z,856.43
2018-01-31T05:08:24.549Z,856.44
2018-01-31T05:09:24.395Z,856.41
2018-01-31T05:10:24.264Z,856.41
2018-01-31T05:11:24.130Z,856.46
2018-01-31T05:12:23.997Z,856.48
2018-01-31T05:13:23.863Z,856.48
2018-01-31T05:14:23.731Z,856.48
2018-01-31T05:15:23.601Z,856.54
2018-01-31T05:16:23.467Z,856.52
2018-01-31T05:17:23.330Z,856.53
2018-01-31T05:18:23.196Z,856.55
2018-01-31T05:19:23.065Z,856.56
2018-01-31T05:20:22.929Z,856.61
2018-01-31T05:21:22.797Z,856.60
2018-01-31T05:22:22.666Z,856.62
2018-01-31T05:23:22.531Z,856.64
2018-01-31T05:24:22.397Z,856.62
2018-01-31T05:25:22.263Z,856.64
2018-01-31T05:26:22.129Z,856.63
2018-01-31T05:27:21.999Z,856.64
2018-01-31T05:28:21.859Z,856.64
2018-01-31T05:29:21.728Z,856.60
2018-01-31T05:30:21.594Z,856.59
2018-01-31T05:31:21.475Z,856.59
2018-01-31T05:32:21.369Z,856.57
2018-01-31T05:33:21.222Z,856.54
2018-01-31T05:34:21.062Z,856.54
2018-01-31T05:35:20.930Z,856.59
2018-01-31T05:36:20.795Z,856.57
2018-01-31T05:37:20.663Z,856.56
2018-01-31T05:38:20.528Z,856.62
2018-01-31T05:39:20.395Z,856.64
2018-01-31T05:40:20.261Z,856.67
2018-01-31T05:41:20.127Z,856.67
2018-01-31T05:42:19.995Z,856.69
2018-01-31T05:43:19.864Z,856.68
2018-01-31T05:44:19.731Z,856.64
2018-01-31T05:45:19.687Z,856.66
2018-01-31T05:46:19.469Z,856.65
2018-01-31T05:47:19.450Z,856.68
2018-01-31T05:48:19.195Z,856.65
2018-01-31T05:49:19.061Z,856.73
2018-01-31T05:50:18.927Z,856.74
2018-01-31T05:51:18.796Z,856.70
2018-01-31T05:52:18.665Z,856.76
2018-01-31T05:53:18.539Z,856.72
2018-01-31T05:54:18.424Z,856.72
2018-01-31T05:55:18.265Z,856.74
2018-01-31T05:56:18.156Z,856.71
2018-01-31T05:57:18.002Z,856.75
2018-01-31T05:58:17.862Z,856.72
2018-01-31T05:59:17.768Z,856.72
2018-01-31T06:00:17.600Z,856.73
2018-01-31T06:01:17.465Z,856.69
2018-01-31T06:02:17.339Z,856.77
2018-01-31T06:03:17.197Z,856.70
2018-01-31T06:04:17.061Z,856.72
2018-01-31T06:05:16.951Z,856.70
2018-01-31T06:06:16.794Z,856.72
2018-01-31T06:07:16.662Z,856.71
2018-01-31T06:08:16.526Z,856.73
2018-01-31T06:09:16.394Z,856.71
2018-01-31T06:10:16.257Z,856.69
2018-01-31T06:11:16.130Z,856.66
2018-01-31T06:12:15.998Z,856.68
2018-01-31T06:13:15.861Z,856.65
2018-01-31T06:14:15.726Z,856.66
2018-01-31T06:15:15.591Z,856.66
2018-01-31T06:16:15.460Z,856.63
2018-01-31T06:17:15.326Z,856.61
2018-01-31T06:18:15.194Z,856.58
2018-01-31T06:19:15.061Z,856.60
2018-01-31T06:20:14.927Z,856.62
2018-01-31T06:21:14.794Z,856.62
2018-01-31T06:22:14.662Z,856.60
2018-01-31T06:23:14.529Z,856.65
2018-01-31T06:24:14.394Z,856.66
2018-01-31T06:25:14.260Z,856.60
2018-01-31T06:26:14.127Z,856.57
2018-01-31T06:27:13.997Z,856.59
2018-01-31T06:28:13.858Z,856.60
2018-01-31T06:29:13.723Z,856.55
2018-01-31T06:30:13.592Z,856.57
2018-01-31T06:31:13.458Z,856.53
2018-01-31T06:32:13.326Z,856.57
2018-01-31T06:33:13.192Z,856.52
2018-01-31T06:34:13.058Z,856.53
2018-01-31T06:35:12.924Z,856.53
2018-01-31T06:36:12.791Z,856.53
2018-01-31T06:37:12.656Z,856.49
2018-01-31T06:38:12.526Z,856.51
2018-01-31T06:39:12.391Z,856.46
2018-01-31T06:40:12.261Z,856.47
2018-01-31T06:41:12.123Z,856.49
2018-01-31T06:42:11.989Z,856.46
2018-01-31T06:43:11.857Z,856.46
2018-01-31T06:44:11.724Z,856.46
2018-01-31T06:45:11.592Z,856.47
2018-01-31T06:46:11.458Z,856.51
2018-01-31T06:47:11.351Z,856.47
2018-01-31T06:48:11.190Z,856.45
2018-01-31T06:49:11.057Z,856.52
2018-01-31T06:50:10.924Z,856.51
2018-01-31T06:51:10.799Z,856.50
2018-01-31T06:52:10.658Z,856.49
2018-01-31T06:53:10.523Z,856.47
2018-01-31T06:54:10.392Z,856.49
2018-01-31T06:55:10.259Z,856.48
2018-01-31T06:56:10.125Z,856.47
2018-01-31T06:57:09.994Z,856.52
2018-01-31T06:58:09.861Z,856.52
2018-01-31T06:59:09.729Z,856.54
2018-01-31T07:00:09.639Z,856.49
2018-01-31T07:01:09.460Z,856.54
2018-01-31T07:02:09.328Z,856.51
2018-01-31T07:03:09.195Z,856.49
2018-01-31T07:04:09.062Z,856.50
2018-01-31T07:05:08.929Z,856.52
2018-01-31T07:06:08.801Z,856.50
2018-01-31T07:07:08.712Z,856.53
2018-01-31T07:08:08.530Z,856.47
2018-01-31T07:09:08.398Z,856.50
2018-01-31T07:10:08.264Z,856.48
2018-01-31T07:11:08.136Z,856.47
2018-01-31T07:12:08.012Z,856.40
2018-01-31T07:13:07.878Z,856.41
2018-01-31T07:14:07.735Z,856.41
2018-01-31T07:15:07.598Z,856.38
2018-01-31T07:16:07.465Z,856.41
2018-01-31T07:17:07.330Z,856.37
2018-01-31T07:18:07.197Z,856.32
2018-01-31T07:19:07.067Z,856.32
2018-01-31T07:20:06.932Z,856.32
2018-01-31T07:21:06.798Z,856.30
2018-01-31T07:22:06.667Z,856.31
2018-01-31T07:23:06.535Z,856.33
2018-01-31T07:24:06.399Z,856.31
2018-01-31T07:25:06.266Z,856.27
2018-01-31T07:26:06.135Z,856.27
2018-01-31T07:27:05.998Z,856.29
2018-01-31T07:28:05.867Z,856.27
2018-01-31T07:29:05.736Z,856.18
2018-01-31T07:30:05.602Z,856.25
2018-01-31T07:31:05.469Z,856.21
2018-01-31T07:32:05.337Z,856.23
2018-01-31T07:33:05.202Z,856.19
2018-01-31T07:34:05.067Z,856.20
2018-01-31T07:35:04.936Z,856.18
2018-01-31T07:36:04.803Z,856.19
2018-01-31T07:37:04.671Z,856.16
2018-01-31T07:38:04.539Z,856.14
2018-01-31T07:39:04.446Z,856.10
2018-01-31T07:40:04.278Z,856.08
2018-01-31T07:41:04.142Z,856.09
2018-01-31T07:42:04.007Z,856.04
2018-01-31T07:43:03.875Z,856.03
2018-01-31T07:44:03.740Z,856.04
2018-01-31T07:45:03.608Z,856.00
2018-01-31T07:46:03.477Z,856.01
2018-01-31T07:47:03.340Z,855.95
2018-01-31T07:48:03.209Z,855.91
2018-01-31T07:49:03.076Z,855.86
2018-01-31T07:50:02.944Z,855.90
2018-01-31T07:51:02.811Z,855.89
2018-01-31T07:52:02.678Z,855.89
2018-01-31T07:53:02.546Z,855.87
2018-01-31T07:54:02.412Z,855.89
2018-01-31T07:55:02.280Z,855.91
2018-01-31T07:56:02.147Z,855.92
2018-01-31T07:57:02.014Z,855.85
2018-01-31T07:58:01.883Z,855.91
2018-01-31T07:59:01.750Z,855.91
2018-01-31T08:00:01.616Z,855.88
2018-01-31T08:01:01.481Z,855.90
2018-01-31T08:02:01.352Z,855.88
2018-01-31T08:03:01.221Z,855.89
2018-01-31T08:04:01.087Z,855.87
2018-01-31T08:05:00.953Z,855.87
2018-01-31T08:06:00.821Z,855.87
2018-01-31T08:07:00.689Z,855.86
2018-01-31T08:08:00.559Z,855.80
2018-01-31T08:09:00.423Z,855.77
2018-01-31T08:10:00.298Z,855.76
2018-01-31T08:11:00.162Z,855.79
2018-01-31T08:12:00.029Z,855.77
2018-01-31T08:12:59.897Z,855.74
2018-01-31T08:13:59.760Z,855.75
2018-01-31T08:14:59.631Z,855.74
2018-01-31T08:15:59.498Z,855.75
2018-01-31T08:16:59.366Z,855.71
2018-01-31T08:17:59.243Z,855.79
2018-01-31T08:18:59.103Z,855.75
2018-01-31T08:19:58.969Z,855.73
2018-01-31T08:20:58.836Z,855.78
2018-01-31T08:21:58.704Z,855.76
2018-01-31T08:22:58.576Z,855.77
2018-01-31T08:23:58.439Z,855.76
2018-01-31T08:24:58.308Z,855.75
2018-01-31T08:25:58.185Z,855.72
2018-01-31T08:26:58.042Z,855.71
2018-01-31T08:27:57.915Z,855.70
2018-01-31T08:28:57.777Z,855.70
2018-01-31T08:29:57.647Z,855.71
2018-01-31T08:30:57.514Z,855.70
2018-01-31T08:31:57.383Z,855.72
2018-01-31T08:32:57.256Z,855.66
2018-01-31T08:33:57.123Z,855.70
2018-01-31T08:34:56.988Z,855.72
2018-01-31T08:35:56.855Z,855.69
2018-01-31T08:36:56.724Z,855.71
2018-01-31T08:37:56.589Z,855.71
2018-01-31T08:38:56.471Z,855.69
2018-01-31T08:39:56.324Z,855.64
2018-01-31T08:40:56.195Z,855.67
2018-01-31T08:41:56.063Z,855.65
2018-01-31T08:42:55.930Z,855.62
2018-01-31T08:43:55.798Z,855.60
2018-01-31T08:44:55.676Z,855.63
2018-01-31T08:45:55.534Z,855.68
2018-01-31T08:46:55.401Z,855.62
2018-01-31T08:47:55.271Z,855.63
2018-01-31T08:48:55.136Z,855.60
2018-01-31T08:49:55.011Z,855.60
2018-01-31T08:50:54.877Z,855.61
2018-01-31T08:51:54.739Z,855.58
2018-01-31T08:52:54.610Z,855.58
2018-01-31T08:53:54.478Z,855.52
2018-01-31T08:54:54.344Z,855.49
2018-01-31T08:55:54.213Z,855.48
2018-01-31T08:56:54.082Z,855.44
2018-01-31T08:57:53.946Z,855.43
2018-01-31T08:58:53.816Z,855.48
2018-01-31T08:59:53.686Z,855.45
2018-01-31T09:00:53.552Z,855.42
2018-01-31T09:01:53.421Z,855.44
2018-01-31T09:02:53.289Z,855.43
2018-01-31T09:03:53.154Z,855.43
2018-01-31T09:04:53.024Z,855.44
2018-01-31T09:05:52.891Z,855.38
2018-01-31T09:06:52.836Z,855.39
2018-01-31T09:07:52.626Z,855.35
2018-01-31T09:08:52.498Z,855.35
2018-01-31T09:09:52.366Z,855.33
2018-01-31T09:10:52.235Z,855.34
2018-01-31T09:11:52.101Z,855.30
2018-01-31T09:12:51.970Z,855.27
2018-01-31T09:13:51.841Z,855.26
2018-01-31T09:14:51.708Z,855.27
2018-01-31T09:15:51.582Z,855.23
2018-01-31T09:16:51.452Z,855.26
2018-01-31T09:17:51.321Z,855.20
2018-01-31T09:18:51.190Z,855.22
2018-01-31T09:19:51.065Z,855.21
2018-01-31T09:20:50.931Z,855.18
2018-01-31T09:21:50.804Z,855.17
2018-01-31T09:22:50.676Z,855.15
2018-01-31T09:23:50.545Z,855.14
2018-01-31T09:24:50.423Z,855.13
2018-01-31T09:25:50.290Z,855.14
2018-01-31T09:26:50.160Z,855.14
2018-01-31T09:27:50.036Z,855.15
2018-01-31T09:28:49.904Z,855.11
2018-01-31T09:29:49.806Z,855.10
2018-01-31T09:30:49.650Z,855.08
2018-01-31T09:31:49.523Z,855.11
2018-01-31T09:32:49.394Z,855.04
2018-01-31T09:33:49.278Z,855.07
2018-01-31T09:34:49.141Z,855.06
2018-01-31T09:35:49.016Z,855.06
2018-01-31T09:36:48.888Z,855.07
2018-01-31T09:37:48.762Z,855.01
2018-01-31T09:38:48.641Z,854.98
2018-01-31T09:39:48.508Z,854.97
2018-01-31T09:40:48.383Z,854.94
2018-01-31T09:41:48.259Z,854.92
2018-01-31T09:42:48.134Z,854.93
2018-01-31T09:43:48.012Z,854.94
2018-01-31T09:44:47.877Z,854.92
2018-01-31T09:45:47.755Z,854.91
2018-01-31T09:46:47.630Z,854.89
2018-01-31T09:47:47.501Z,854.86
2018-01-31T09:48:47.375Z,854.84
2018-01-31T09:49:47.250Z,854.83
2018-01-31T09:50:47.127Z,854.81
2018-01-31T09:51:46.999Z,854.78
2018-01-31T09:52:46.872Z,854.75
2018-01-31T09:53:46.747Z,854.79
2018-01-31T09:54:46.620Z,854.79
2018-01-31T09:55:46.495Z,854.79
2018-01-31T09:56:46.373Z,854.76
2018-01-31T09:57:46.243Z,854.74
2018-01-31T09:58:46.118Z,854.75
2018-01-31T09:59:45.991Z,854.75
2018-01-31T10:00:45.864Z,854.75
2018-01-31T10:01:45.738Z,854.75
2018-01-31T10:02:45.613Z,854.72
2018-01-31T10:03:45.488Z,854.70
2018-01-31T10:04:45.362Z,854.70
2018-01-31T10:05:45.238Z,854.70
2018-01-31T10:06:45.110Z,854.69
2018-01-31T10:07:44.981Z,854.66
2018-01-31T10:08:44.855Z,854.66
2018-01-31T10:09:44.731Z,854.66
2018-01-31T10:10:44.607Z,854.67
2018-01-31T10:11:44.477Z,854.66
2018-01-31T10:12:44.352Z,854.56
2018-01-31T10:13:44.229Z,854.61
2018-01-31T10:14:44.099Z,854.61
2018-01-31T10:15:43.974Z,854.60
2018-01-31T10:16:43.847Z,854.56
2018-01-31T10:17:43.722Z,854.57
2018-01-31T10:18:43.596Z,854.54
2018-01-31T10:19:43.471Z,854.55
2018-01-31T10:20:43.343Z,854.55
2018-01-31T10:21:43.220Z,854.57
2018-01-31T10:22:43.095Z,854.53
2018-01-31T10:23:42.969Z,854.49
2018-01-31T10:24:42.846Z,854.44
2018-01-31T10:25:42.720Z,854.43
2018-01-31T10:26:42.596Z,854.45
2018-01-31T10:27:42.470Z,854.44
2018-01-31T10:28:42.342Z,854.40
2018-01-31T10:29:42.220Z,854.38
2018-01-31T10:30:42.098Z,854.30
2018-01-31T10:31:41.970Z,854.28
2018-01-31T10:32:41.846Z,854.27
2018-01-31T10:33:41.720Z,854.27
2018-01-31T10:34:41.596Z,854.27
2018-01-31T10:35:41.474Z,854.23
2018-01-31T10:36:41.348Z,854.17
2018-01-31T10:37:41.223Z,854.13
2018-01-31T10:38:41.104Z,854.14
2018-01-31T10:39:40.977Z,854.13
2018-01-31T10:40:40.850Z,854.12
2018-01-31T10:41:40.727Z,854.08
2018-01-31T10:42:40.604Z,854.08
2018-01-31T10:43:40.483Z,854.06
2018-01-31T10:44:40.358Z,854.08
2018-01-31T10:45:40.232Z,854.01
2018-01-31T10:46:40.107Z,854.03
2018-01-31T10:47:39.986Z,853.98
2018-01-31T10:48:39.860Z,853.96
2018-01-31T10:49:39.739Z,853.91
2018-01-31T10:50:39.613Z,853.89
2018-01-31T10:51:39.491Z,853.85
2018-01-31T10:52:39.368Z,853.82
2018-01-31T10:57:38.752Z,853.66
2018-01-31T10:58:38.628Z,853.68
2018-01-31T10:59:38.505Z,853.68
2018-01-31T11:00:38.382Z,853.63
2018-01-31T11:01:38.260Z,853.62
2018-01-31T11:02:38.136Z,853.61
2018-01-31T11:03:38.015Z,853.60
2018-01-31T11:04:37.891Z,853.58
2018-01-31T11:05:37.769Z,853.53
2018-01-31T11:06:37.654Z,853.54
2018-01-31T11:07:37.524Z,853.47
2018-01-31T11:08:37.403Z,853.45
2018-01-31T11:09:37.279Z,853.42
2018-01-31T11:10:37.159Z,853.43
2018-01-31T11:11:37.037Z,853.42
2018-01-31T11:12:36.913Z,853.41
2018-01-31T11:13:36.793Z,853.35
2018-01-31T11:14:36.673Z,853.36
2018-01-31T11:15:36.552Z,853.31
2018-01-31T11:16:36.436Z,853.33
2018-01-31T11:17:36.308Z,853.29
2018-01-31T11:18:36.188Z,853.27
2018-01-31T11:19:36.064Z,853.23
2018-01-31T11:20:35.943Z,853.19
2018-01-31T11:21:35.823Z,853.18
2018-01-31T11:22:35.702Z,853.17
2018-01-31T11:23:35.578Z,853.11
2018-01-31T11:24:35.457Z,853.08
2018-01-31T11:25:35.337Z,853.06
2018-01-31T11:26:35.217Z,853.03
2018-01-31T11:27:35.093Z,853.00
2018-01-31T11:28:34.971Z,852.97
2018-01-31T11:29:34.849Z,852.99
2018-01-31T11:30:34.725Z,852.95
2018-01-31T11:31:34.601Z,852.93
2018-01-31T11:32:34.483Z,852.91
2018-01-31T11:33:34.359Z,852.90
2018-01-31T11:34:34.236Z,852.85
2018-01-31T11:35:34.118Z,852.81
2018-01-31T11:36:33.990Z,852.81
2018-01-31T11:37:33.872Z,852.82
2018-01-31T11:38:33.748Z,852.76
2018-01-31T11:39:33.623Z,852.75
2018-01-31T11:40:33.502Z,852.67
2018-01-31T11:41:33.383Z,852.70
2018-01-31T11:42:33.261Z,852.63
2018-01-31T11:43:33.135Z,852.60
2018-01-31T11:44:33.013Z,852.52
2018-01-31T11:45:32.890Z,852.52
2018-01-31T11:46:32.769Z,852.46
2018-01-31T11:47:32.646Z,852.46
2018-01-31T11:48:32.523Z,852.42
2018-01-31T11:49:32.402Z,852.37
2018-01-31T11:50:32.281Z,852.36
2018-01-31T11:51:32.160Z,852.33
2018-01-31T11:52:32.035Z,852.34
2018-01-31T11:53:31.914Z,852.33
2018-01-31T11:54:31.791Z,852.32
2018-01-31T11:55:31.670Z,852.30
2018-01-31T11:56:31.548Z,852.31
2018-01-31T11:57:31.425Z,852.29
2018-01-31T11:58:31.327Z,852.26
2018-01-31T11:59:31.179Z,852.24
2018-01-31T12:00:31.058Z,852.22
2018-01-31T12:01:30.935Z,852.18
2018-01-31T12:02:30.813Z,852.19
2018-01-31T12:03:30.691Z,852.15
2018-01-31T12:04:30.568Z,852.12
2018-01-31T12:05:30.446Z,852.10
2018-01-31T12:06:30.325Z,852.09
2018-01-31T12:07:30.202Z,852.02
2018-01-31T12:08:30.080Z,852.02
2018-01-31T12:09:29.958Z,852.03
2018-01-31T12:10:29.836Z,852.01
2018-01-31T12:11:29.711Z,852.00
2018-01-31T12:12:29.593Z,851.95
2018-01-31T12:13:29.470Z,851.96
2018-01-31T12:14:29.348Z,851.94
2018-01-31T12:15:29.227Z,851.91
2018-01-31T12:16:29.104Z,851.90
2018-01-31T12:17:28.980Z,851.89
2018-01-31T12:18:28.860Z,851.88
2018-01-31T12:19:28.734Z,851.89
2018-01-31T12:20:28.612Z,851.87
2018-01-31T12:21:28.489Z,851.86
2018-01-31T12:22:28.370Z,851.84
2018-01-31T12:23:28.246Z,851.80
2018-01-31T12:24:28.126Z,851.77
2018-01-31T12:25:27.998Z,851.74
2018-01-31T12:26:28.116Z,851.75
2018-01-31T12:27:27.755Z,851.71
2018-01-31T12:28:27.631Z,851.72
2018-01-31T12:29:27.666Z,851.73
2018-01-31T12:30:27.516Z,851.69
2018-01-31T12:31:27.263Z,851.65
2018-01-31T12:32:27.139Z,851.62
2018-01-31T12:33:27.017Z,851.54
2018-01-31T12:34:26.894Z,851.52
2018-01-31T12:35:26.770Z,851.51
2018-01-31T12:36:26.653Z,851.45
2018-01-31T12:37:26.568Z,851.42
2018-01-31T12:38:26.401Z,851.44
2018-01-31T12:39:26.277Z,851.44
2018-01-31T12:40:26.156Z,851.40
2018-01-31T12:41:26.031Z,851.37
2018-01-31T12:42:25.910Z,851.39
2018-01-31T12:43:25.787Z,851.33
2018-01-31T12:44:25.664Z,851.30
2018-01-31T12:45:25.539Z,851.24
2018-01-31T12:46:25.416Z,851.27
2018-01-31T12:47:25.294Z,851.23
2018-01-31T12:48:25.169Z,851.20
2018-01-31T12:49:25.110Z,851.21
2018-01-31T12:50:24.922Z,851.14
2018-01-31T12:51:24.823Z,851.13
2018-01-31T12:52:24.676Z,851.11
2018-01-31T12:53:24.568Z,851.12
2018-01-31T12:54:24.427Z,851.07
2018-01-31T12:55:24.303Z,851.04
2018-01-31T12:56:24.179Z,851.04
2018-01-31T12:57:24.058Z,851.01
2018-01-31T12:58:23.934Z,850.99
2018-01-31T12:59:23.815Z,850.99
2018-01-31T13:00:23.686Z,850.93
2018-01-31T13:01:23.585Z,850.93
2018-01-31T13:02:23.450Z,850.93
2018-01-31T13:03:23.317Z,850.90
2018-01-31T13:04:23.195Z,850.85
2018-01-31T13:05:23.071Z,850.86
2018-01-31T13:06:22.948Z,850.83
2018-01-31T13:07:22.825Z,850.84
2018-01-31T13:08:22.707Z,850.80
2018-01-31T13:09:22.580Z,850.75
2018-01-31T13:10:22.586Z,850.77
2018-01-31T13:11:22.332Z,850.77
2018-01-31T13:12:22.211Z,850.75
2018-01-31T13:13:22.103Z,850.75
2018-01-31T13:14:21.967Z,850.73
2018-01-31T13:15:21.865Z,850.72
2018-01-31T13:16:21.730Z,850.73
2018-01-31T13:17:21.601Z,850.74
2018-01-31T13:18:21.482Z,850.71
2018-01-31T13:19:21.355Z,850.70
2018-01-31T13:20:21.316Z,850.71
2018-01-31T13:21:21.118Z,850.67
2018-01-31T13:22:20.998Z,850.68
2018-01-31T13:23:21.008Z,850.68
2018-01-31T13:24:20.747Z,850.65
2018-01-31T13:25:20.627Z,850.64
2018-01-31T13:26:20.501Z,850.64
2018-01-31T13:27:20.381Z,850.67
2018-01-31T13:28:20.259Z,850.66
2018-01-31T13:29:20.257Z,850.63
2018-01-31T13:30:20.019Z,850.56
2018-01-31T13:31:19.895Z,850.56
2018-01-31T13:32:19.782Z,850.57
2018-01-31T13:33:19.748Z,850.58
2018-01-31T13:34:19.809Z,850.59
2018-01-31T13:35:19.403Z,850.57
2018-01-31T13:36:19.282Z,850.56
2018-01-31T13:37:19.161Z,850.55
2018-01-31T13:38:19.039Z,850.58
2018-01-31T13:39:18.921Z,850.55
2018-01-31T13:40:18.797Z,850.56
2018-01-31T13:41:18.678Z,850.54
2018-01-31T13:42:18.555Z,850.57
2018-01-31T13:43:18.431Z,850.54
2018-01-31T13:44:18.308Z,850.54
2018-01-31T13:45:18.211Z,850.55
2018-01-31T13:46:18.068Z,850.53
2018-01-31T13:47:17.947Z,850.51
2018-01-31T13:48:17.975Z,850.54
2018-01-31T13:49:17.703Z,850.51
2018-01-31T13:50:17.654Z,850.50
2018-01-31T13:51:17.459Z,850.54
2018-01-31T13:52:17.337Z,850.52
2018-01-31T13:53:17.216Z,850.52
2018-01-31T13:54:17.093Z,850.50
2018-01-31T13:55:16.972Z,850.50
2018-01-31T13:56:16.849Z,850.48
2018-01-31T13:57:16.760Z,850.51
2018-01-31T13:58:16.608Z,850.49
2018-01-31T13:59:16.487Z,850.49
2018-01-31T14:00:16.370Z,850.50
2018-01-31T14:01:16.387Z,850.45
2018-01-31T14:02:16.122Z,850.43
2018-01-31T14:03:16.006Z,850.42
2018-01-31T14:04:15.879Z,850.36
2018-01-31T14:05:15.760Z,850.41
2018-01-31T14:06:15.637Z,850.37
2018-01-31T14:07:15.517Z,850.33
2018-01-31T14:08:15.449Z,850.32
2018-01-31T14:09:15.275Z,850.31
2018-01-31T14:10:15.154Z,850.33
2018-01-31T14:11:15.034Z,850.28
2018-01-31T14:12:14.911Z,850.31
2018-01-31T14:13:14.791Z,850.25
2018-01-31T14:14:14.668Z,850.27
2018-01-31T14:15:14.546Z,850.22
2018-01-31T14:16:14.433Z,850.22
2018-01-31T14:17:14.343Z,850.19
2018-01-31T14:18:14.183Z,850.17
2018-01-31T14:19:14.062Z,850.15
2018-01-31T14:20:13.953Z,850.13
2018-01-31T14:21:13.820Z,850.11
2018-01-31T14:22:13.700Z,850.11
2018-01-31T14:23:13.595Z,850.11